20PN weather

Msd Landing Area Heliport
West Point, Pennsylvania, United States

Public forecast

Using degrees Fahrenheit for public forecast. Weather courtesy of forecast.io.

METAR (pilot weather report)

Closest report is Wings Field, 5.0 nm (9.2 km) SSE. Retrieved 2019/07/16 03:35 UTC (0 seconds ago):

KLOM 160335Z AUTO 10SM CLR 19/18 A3008 RMK AO2 T01920180

TAF (pilot weather forecast)

Forecast is more than 12 hours old.

Closest forecast is Northeast Philadelphia Airport, 15.8 nm (29.2 km) ESE. Retrieved 2019/07/15 00:22 UTC (1 day ago):

TAF KPNE 152320Z 1600/1624 VRB05KT P6SM FEW200 FM161500 24006KT P6SM FEW200